WetterOnline ( https://www.wetteronline.de )

Wetter aktuell Eisenach

Aktuelles Wetter: Eisenach (312m)

6-stündlich | Neueste Meldungen
Ortszeit Temperatur Wetter
Fr, 01.07. 8:00 14.6° C leichter Regen
Fr, 01.07. 2:00 21.5° C wolkig
Do, 30.06. 20:00 26.6° C fast wolkenlos
Do, 30.06. 14:00 26.3° C wolkenlos
Do, 30.06. 8:00 17.3° C Nebel
Do, 30.06. 2:00 17.4° C bedeckt
Mi, 29.06. 20:00 21.4° C wolkig
Mi, 29.06. 14:00 21.3° C bewölkt
Ortszeit Temperatur Wetter
Fr, 01.07. 13:00 13.8° C leichter Regen
Fr, 01.07. 12:50 13.8° C leichter Regen
Fr, 01.07. 12:40 13.7° C leichter Regen
Fr, 01.07. 12:30 13.5° C leichter Regen
Fr, 01.07. 12:20 13.5° C leichter Regen
Fr, 01.07. 12:10 13.5° C leichter Regen
Fr, 01.07. 12:00 13.2° C leichter Regen
Fr, 01.07. 11:30 12.8° C leichter Regen
Fr, 01.07. 11:00 14.1° C Sprühregen
Fr, 01.07. 10:30 14.5° C bedeckt
Fr, 01.07. 10:00 14.5° C bewölkt
Ortszeit Relative Feuchte Sichtweite
Fr, 01.07. 8:00 87% 16 km
Fr, 01.07. 2:00 64% 45 km
Do, 30.06. 20:00 54% 35 km
Do, 30.06. 14:00 59% 24 km
Do, 30.06. 8:00 97% 1.8 km
Do, 30.06. 2:00 92% 11 km
Mi, 29.06. 20:00 73% 40 km
Mi, 29.06. 14:00 72% 26 km
Ortszeit Relative Feuchte Sichtweite
Fr, 01.07. 13:00 92% 29 km
Fr, 01.07. 12:50 92% -
Fr, 01.07. 12:40 92% -
Fr, 01.07. 12:30 92% 19 km
Fr, 01.07. 12:20 92% -
Fr, 01.07. 12:10 92% -
Fr, 01.07. 12:00 95% 5.0 km
Fr, 01.07. 11:30 91% 3.1 km
Fr, 01.07. 11:00 92% 10 km
Fr, 01.07. 10:30 88% 27 km
Fr, 01.07. 10:00 89% 27 km
Ortszeit Niederschlagsmenge Niederschlagsart
Fr, 01.07. 8:00 1 l/m2 in 12 Std. Regen
Fr, 01.07. 2:00 0.0 l/m2 in 6 Std. -
Do, 30.06. 20:00 0.1 l/m2 in 12 Std. Regen
Do, 30.06. 14:00 0.0 l/m2 in 6 Std. -
Do, 30.06. 8:00 0.0 l/m2 in 12 Std. -
Do, 30.06. 2:00 0.0 l/m2 in 6 Std. -
Mi, 29.06. 20:00 0.3 l/m2 in 12 Std. -
Mi, 29.06. 14:00 0.3 l/m2 in 6 Std. Regen
Ortszeit Niederschlagsmenge Niederschlagsart
Fr, 01.07. 13:00 0.3 l/m2 in 1 Std. Regen
Fr, 01.07. 12:50 keine Meldung -
Fr, 01.07. 12:40 keine Meldung -
Fr, 01.07. 12:30 0.2 l/m2 in 1 Std. -
Fr, 01.07. 12:20 keine Meldung -
Fr, 01.07. 12:10 keine Meldung -
Fr, 01.07. 12:00 1.1 l/m2 in 1 Std. Regen
Fr, 01.07. 11:30 0.3 l/m2 in 1 Std. -
Fr, 01.07. 11:00 0.1 l/m2 in 1 Std. Regen
Fr, 01.07. 10:30 0.0 l/m2 in 1 Std. -
Fr, 01.07. 10:00 0.2 l/m2 in 1 Std. Regen
Ortszeit Stärke Spitze Richtung
km/h Bft. km/h Grad Sektor
Fr, 01.07. 8:00 11 2 43 300° NW
Fr, 01.07. 2:00 24 4 44 270° W
Do, 30.06. 20:00 25 4 40 120° SO
Do, 30.06. 14:00 15 3 22 110° O
Do, 30.06. 8:00 9 2 15 130° SO
Do, 30.06. 2:00 7 2 25 120° SO
Mi, 29.06. 20:00 15 3 33 100° O
Mi, 29.06. 14:00 22 4 40 80° O
Ortszeit Stärke Spitze Richtung
km/h Bft. km/h Grad Sektor
Fr, 01.07. 13:00 7 2 22 270° W
Fr, 01.07. 12:50 7 2 - 270° W
Fr, 01.07. 12:40 7 2 - 270° W
Fr, 01.07. 12:30 11 2 22 310° NW
Fr, 01.07. 12:20 11 2 - 310° NW
Fr, 01.07. 12:10 11 2 - 300° NW
Fr, 01.07. 12:00 11 2 26 270° W
Fr, 01.07. 11:30 18 3 25 290° W
Fr, 01.07. 11:00 11 2 22 260° W
Fr, 01.07. 10:30 11 2 14 290° W
Fr, 01.07. 10:00 9 2 13 290° W
Ortszeit Untergrenze Bedeckung Gattung
total tief tief mittel hoch
Fr, 01.07. 8:00 540 m 8/8 8/8 - - -
Fr, 01.07. 2:00 2100 m 8/8 1/8 - - -
Do, 30.06. 20:00 1500 m 1/8 1/8 - - -
Do, 30.06. 14:00 - 0/8 0/8 - - -
Do, 30.06. 8:00 60 m 8/8 8/8 - - -
Do, 30.06. 2:00 3900 m 8/8 8/8 - - -
Mi, 29.06. 20:00 690 m 7/8 2/8 - - -
Mi, 29.06. 14:00 570 m 7/8 7/8 - - -
Ortszeit Bedeckungsgrad in Achtel und Wolkenuntergrenze
Fr, 01.07. 13:00 1(150m) 7(900m) 7(2100m)
Fr, 01.07. 12:50 1(150m) 7(900m) 7(2100m)
Fr, 01.07. 12:40 7
Fr, 01.07. 12:30 2(510m) 7(720m)
Fr, 01.07. 12:20 2(510m) 7(720m)
Fr, 01.07. 12:10 8
Fr, 01.07. 12:00 5(180m) 7(390m) 8(540m)
Fr, 01.07. 11:30 5(180m) 8(420m)
Fr, 01.07. 11:00 2(240m) 8(510m)
Fr, 01.07. 10:30 5(360m) 8(570m)
Fr, 01.07. 10:00 7(660m)
Ortszeit Luftdruck NN (hPa) Tendenz (hPa in 3 Std.)
Fr, 01.07. 8:00 1016 + 1,6
Fr, 01.07. 2:00 1011 + 1,6
Do, 30.06. 20:00 1008 - 0,9
Do, 30.06. 14:00 1010 - 1,2
Do, 30.06. 8:00 1013 0,0
Do, 30.06. 2:00 1013 - 0,2
Mi, 29.06. 20:00 1013 - 0,5
Mi, 29.06. 14:00 1015 - 0,7
Ortszeit Luftdruck NN (hPa) Tendenz (hPa in 3 Std.)
Fr, 01.07. 13:00 1019 + 1,7
Fr, 01.07. 12:50 1019 keine Meldung
Fr, 01.07. 12:40 1019 keine Meldung
Fr, 01.07. 12:30 1018 + 1,3
Fr, 01.07. 12:20 1018 keine Meldung
Fr, 01.07. 12:10 1019 keine Meldung
Fr, 01.07. 12:00 1019 + 1,7
Fr, 01.07. 11:30 1019 + 2,0
Fr, 01.07. 11:00 1018 + 1,8
Fr, 01.07. 10:30 1017 + 2,0
Fr, 01.07. 10:00 1017 + 1,4
Ortszeit Schneehöhe (cm)
Fr, 01.07. 8:00 0
Fr, 01.07. 2:00 0
Do, 30.06. 20:00 0
Do, 30.06. 14:00 0
Do, 30.06. 8:00 0
Do, 30.06. 2:00 0
Mi, 29.06. 20:00 0
Mi, 29.06. 14:00 0
Ortszeit Schneehöhe (cm)
Fr, 01.07. 13:00 0
Fr, 01.07. 12:50 0
Fr, 01.07. 12:40 0
Fr, 01.07. 12:30 0
Fr, 01.07. 12:20 0
Fr, 01.07. 12:10 0
Fr, 01.07. 12:00 0
Fr, 01.07. 11:30 0
Fr, 01.07. 11:00 0
Fr, 01.07. 10:30 0
Fr, 01.07. 10:00 0
Link zu dieser Seite / Seite empfehlen

Das Wetter in ...